sensor_id;sensor_type;location;lat;lon;timestamp;P1;durP1;ratioP1;P2;durP2;ratioP2
39772;SDS011;25451;51.960;6.250;2023-02-15T00:01:49;26.53;;;11.77;;
39772;SDS011;25451;51.960;6.250;2023-02-15T00:04:16;29.42;;;11.60;;
39772;SDS011;25451;51.960;6.250;2023-02-15T00:06:42;29.13;;;11.35;;
39772;SDS011;25451;51.960;6.250;2023-02-15T00:09:08;25.20;;;10.60;;
39772;SDS011;25451;51.960;6.250;2023-02-15T00:11:34;22.83;;;10.23;;
39772;SDS011;25451;51.960;6.250;2023-02-15T00:14:08;24.02;;;10.30;;
39772;SDS011;25451;51.960;6.250;2023-02-15T00:16:34;23.27;;;10.00;;
39772;SDS011;25451;51.960;6.250;2023-02-15T00:19:00;24.13;;;9.93;;
39772;SDS011;25451;51.960;6.250;2023-02-15T00:21:27;19.65;;;9.45;;
39772;SDS011;25451;51.960;6.250;2023-02-15T00:23:54;25.37;;;9.93;;
39772;SDS011;25451;51.960;6.250;2023-02-15T00:26:19;24.13;;;10.00;;
39772;SDS011;25451;51.960;6.250;2023-02-15T00:28:45;18.37;;;7.67;;
39772;SDS011;25451;51.960;6.250;2023-02-15T00:31:10;20.87;;;8.93;;
39772;SDS011;25451;51.960;6.250;2023-02-15T00:33:37;19.33;;;8.00;;
39772;SDS011;25451;51.960;6.250;2023-02-15T00:36:04;19.58;;;8.23;;
39772;SDS011;25451;51.960;6.250;2023-02-15T00:38:31;20.90;;;9.32;;
39772;SDS011;25451;51.960;6.250;2023-02-15T00:40:57;22.02;;;9.43;;
39772;SDS011;25451;51.960;6.250;2023-02-15T00:43:24;19.93;;;8.80;;
39772;SDS011;25451;51.960;6.250;2023-02-15T00:45:50;19.05;;;8.77;;
39772;SDS011;25451;51.960;6.250;2023-02-15T00:48:16;21.80;;;8.80;;
39772;SDS011;25451;51.960;6.250;2023-02-15T00:50:41;16.80;;;8.03;;
39772;SDS011;25451;51.960;6.250;2023-02-15T00:53:07;20.37;;;8.77;;
39772;SDS011;25451;51.960;6.250;2023-02-15T00:55:32;22.98;;;9.57;;
39772;SDS011;25451;51.960;6.250;2023-02-15T00:57:58;20.87;;;8.27;;
39772;SDS011;25451;51.960;6.250;2023-02-15T01:00:23;21.90;;;9.00;;
39772;SDS011;25451;51.960;6.250;2023-02-15T01:02:49;22.95;;;8.70;;
39772;SDS011;25451;51.960;6.250;2023-02-15T01:05:14;20.77;;;9.27;;
39772;SDS011;25451;51.960;6.250;2023-02-15T01:07:39;17.40;;;8.47;;
39772;SDS011;25451;51.960;6.250;2023-02-15T01:10:06;18.77;;;8.43;;
39772;SDS011;25451;51.960;6.250;2023-02-15T01:12:32;19.65;;;8.20;;
39772;SDS011;25451;51.960;6.250;2023-02-15T01:14:57;19.38;;;8.27;;
39772;SDS011;25451;51.960;6.250;2023-02-15T01:17:23;18.50;;;7.80;;
39772;SDS011;25451;51.960;6.250;2023-02-15T01:19:48;17.90;;;8.10;;
39772;SDS011;25451;51.960;6.250;2023-02-15T01:22:13;18.17;;;8.03;;
39772;SDS011;25451;51.960;6.250;2023-02-15T01:24:39;20.23;;;8.60;;
39772;SDS011;25451;51.960;6.250;2023-02-15T01:27:04;19.60;;;8.20;;
39772;SDS011;25451;51.960;6.250;2023-02-15T01:29:29;19.07;;;8.03;;
39772;SDS011;25451;51.960;6.250;2023-02-15T01:31:55;20.27;;;7.97;;
39772;SDS011;25451;51.960;6.250;2023-02-15T01:34:20;18.73;;;8.60;;
39772;SDS011;25451;51.960;6.250;2023-02-15T01:36:45;17.47;;;7.90;;
39772;SDS011;25451;51.960;6.250;2023-02-15T01:39:10;20.80;;;7.90;;
39772;SDS011;25451;51.960;6.250;2023-02-15T01:41:36;18.00;;;7.88;;
39772;SDS011;25451;51.960;6.250;2023-02-15T01:44:02;18.63;;;7.47;;
39772;SDS011;25451;51.960;6.250;2023-02-15T01:46:32;17.90;;;8.00;;
39772;SDS011;25451;51.960;6.250;2023-02-15T01:49:05;20.65;;;8.23;;
39772;SDS011;25451;51.960;6.250;2023-02-15T01:51:39;18.85;;;7.72;;
39772;SDS011;25451;51.960;6.250;2023-02-15T01:54:09;18.33;;;7.03;;
39772;SDS011;25451;51.960;6.250;2023-02-15T01:56:42;16.02;;;6.82;;
39772;SDS011;25451;51.960;6.250;2023-02-15T01:59:09;19.43;;;7.83;;
39772;SDS011;25451;51.960;6.250;2023-02-15T02:01:39;19.90;;;7.57;;
39772;SDS011;25451;51.960;6.250;2023-02-15T02:06:29;19.80;;;7.77;;
39772;SDS011;25451;51.960;6.250;2023-02-15T02:08:57;18.08;;;7.82;;
39772;SDS011;25451;51.960;6.250;2023-02-15T02:11:22;19.67;;;7.80;;
39772;SDS011;25451;51.960;6.250;2023-02-15T02:13:48;17.27;;;7.60;;
39772;SDS011;25451;51.960;6.250;2023-02-15T02:24:41;19.65;;;7.97;;
39772;SDS011;25451;51.960;6.250;2023-02-15T02:41:56;19.45;;;7.68;;
39772;SDS011;25451;51.960;6.250;2023-02-15T02:44:29;19.17;;;7.33;;
39772;SDS011;25451;51.960;6.250;2023-02-15T02:50:05;16.25;;;7.00;;
39772;SDS011;25451;51.960;6.250;2023-02-15T02:52:39;19.00;;;7.82;;
39772;SDS011;25451;51.960;6.250;2023-02-15T02:57:37;16.30;;;7.53;;
39772;SDS011;25451;51.960;6.250;2023-02-15T03:00:10;18.63;;;7.53;;
39772;SDS011;25451;51.960;6.250;2023-02-15T03:02:38;16.80;;;7.60;;
39772;SDS011;25451;51.960;6.250;2023-02-15T03:05:11;19.70;;;7.53;;
39772;SDS011;25451;51.960;6.250;2023-02-15T03:07:41;20.88;;;8.10;;
39772;SDS011;25451;51.960;6.250;2023-02-15T03:10:07;19.80;;;8.27;;
39772;SDS011;25451;51.960;6.250;2023-02-15T03:12:35;18.55;;;7.80;;
39772;SDS011;25451;51.960;6.250;2023-02-15T03:15:10;19.25;;;7.85;;
39772;SDS011;25451;51.960;6.250;2023-02-15T03:17:37;20.83;;;8.18;;
39772;SDS011;25451;51.960;6.250;2023-02-15T03:20:17;19.73;;;8.18;;
39772;SDS011;25451;51.960;6.250;2023-02-15T03:22:54;18.33;;;7.60;;
39772;SDS011;25451;51.960;6.250;2023-02-15T03:25:42;16.67;;;7.20;;
39772;SDS011;25451;51.960;6.250;2023-02-15T03:28:11;19.50;;;7.47;;
39772;SDS011;25451;51.960;6.250;2023-02-15T03:30:41;18.45;;;7.47;;
39772;SDS011;25451;51.960;6.250;2023-02-15T03:33:10;15.13;;;7.00;;
39772;SDS011;25451;51.960;6.250;2023-02-15T03:38:30;17.77;;;7.57;;
39772;SDS011;25451;51.960;6.250;2023-02-15T03:41:01;15.00;;;6.63;;
39772;SDS011;25451;51.960;6.250;2023-02-15T03:43:50;19.67;;;8.45;;
39772;SDS011;25451;51.960;6.250;2023-02-15T03:46:20;20.05;;;7.72;;
39772;SDS011;25451;51.960;6.250;2023-02-15T03:49:01;19.70;;;8.00;;
39772;SDS011;25451;51.960;6.250;2023-02-15T03:51:34;20.77;;;8.35;;
39772;SDS011;25451;51.960;6.250;2023-02-15T03:56:38;19.88;;;7.20;;
39772;SDS011;25451;51.960;6.250;2023-02-15T03:59:05;18.83;;;8.07;;
39772;SDS011;25451;51.960;6.250;2023-02-15T04:05:00;20.93;;;7.73;;
39772;SDS011;25451;51.960;6.250;2023-02-15T04:07:25;18.73;;;8.05;;
39772;SDS011;25451;51.960;6.250;2023-02-15T04:09:50;17.00;;;7.67;;
39772;SDS011;25451;51.960;6.250;2023-02-15T04:12:34;16.20;;;7.53;;
39772;SDS011;25451;51.960;6.250;2023-02-15T04:14:59;19.83;;;8.67;;
39772;SDS011;25451;51.960;6.250;2023-02-15T04:17:43;17.38;;;7.38;;
39772;SDS011;25451;51.960;6.250;2023-02-15T04:20:08;17.50;;;7.70;;
39772;SDS011;25451;51.960;6.250;2023-02-15T04:22:52;19.13;;;7.82;;
39772;SDS011;25451;51.960;6.250;2023-02-15T04:25:36;19.17;;;8.07;;
39772;SDS011;25451;51.960;6.250;2023-02-15T04:28:01;20.37;;;8.27;;
39772;SDS011;25451;51.960;6.250;2023-02-15T04:30:27;19.43;;;8.13;;
39772;SDS011;25451;51.960;6.250;2023-02-15T04:32:53;21.03;;;8.57;;
39772;SDS011;25451;51.960;6.250;2023-02-15T04:35:19;19.17;;;7.90;;
39772;SDS011;25451;51.960;6.250;2023-02-15T04:37:44;19.33;;;8.80;;
39772;SDS011;25451;51.960;6.250;2023-02-15T04:40:11;16.57;;;7.50;;
39772;SDS011;25451;51.960;6.250;2023-02-15T04:42:40;18.88;;;8.27;;
39772;SDS011;25451;51.960;6.250;2023-02-15T04:45:06;17.50;;;7.70;;
39772;SDS011;25451;51.960;6.250;2023-02-15T04:47:31;23.42;;;8.00;;
39772;SDS011;25451;51.960;6.250;2023-02-15T04:49:57;18.80;;;7.57;;
39772;SDS011;25451;51.960;6.250;2023-02-15T04:52:22;18.33;;;7.70;;
39772;SDS011;25451;51.960;6.250;2023-02-15T04:54:48;20.10;;;7.80;;
39772;SDS011;25451;51.960;6.250;2023-02-15T04:57:13;21.30;;;8.50;;
39772;SDS011;25451;51.960;6.250;2023-02-15T04:59:38;19.92;;;8.30;;
39772;SDS011;25451;51.960;6.250;2023-02-15T05:02:04;19.37;;;8.03;;
39772;SDS011;25451;51.960;6.250;2023-02-15T05:04:29;21.47;;;7.47;;
39772;SDS011;25451;51.960;6.250;2023-02-15T05:06:55;17.27;;;7.63;;
39772;SDS011;25451;51.960;6.250;2023-02-15T05:09:20;19.57;;;7.27;;
39772;SDS011;25451;51.960;6.250;2023-02-15T05:11:45;18.87;;;7.47;;
39772;SDS011;25451;51.960;6.250;2023-02-15T05:14:11;17.90;;;7.78;;
39772;SDS011;25451;51.960;6.250;2023-02-15T05:16:36;20.47;;;8.40;;
39772;SDS011;25451;51.960;6.250;2023-02-15T05:19:01;22.77;;;9.37;;
39772;SDS011;25451;51.960;6.250;2023-02-15T05:21:27;21.13;;;8.47;;
39772;SDS011;25451;51.960;6.250;2023-02-15T05:23:52;24.40;;;8.68;;
39772;SDS011;25451;51.960;6.250;2023-02-15T05:26:20;20.38;;;8.20;;
39772;SDS011;25451;51.960;6.250;2023-02-15T05:29:05;19.97;;;7.43;;
39772;SDS011;25451;51.960;6.250;2023-02-15T05:31:31;20.13;;;8.30;;
39772;SDS011;25451;51.960;6.250;2023-02-15T05:33:57;22.35;;;9.00;;
39772;SDS011;25451;51.960;6.250;2023-02-15T05:36:22;19.80;;;7.00;;
39772;SDS011;25451;51.960;6.250;2023-02-15T05:38:47;22.70;;;8.37;;
39772;SDS011;25451;51.960;6.250;2023-02-15T05:41:13;21.40;;;8.73;;
39772;SDS011;25451;51.960;6.250;2023-02-15T05:43:38;19.70;;;7.93;;
39772;SDS011;25451;51.960;6.250;2023-02-15T05:46:04;19.33;;;8.30;;
39772;SDS011;25451;51.960;6.250;2023-02-15T05:48:30;20.17;;;7.80;;
39772;SDS011;25451;51.960;6.250;2023-02-15T05:51:01;19.63;;;8.30;;
39772;SDS011;25451;51.960;6.250;2023-02-15T05:53:30;19.08;;;8.25;;
39772;SDS011;25451;51.960;6.250;2023-02-15T05:55:57;22.00;;;8.23;;
39772;SDS011;25451;51.960;6.250;2023-02-15T05:58:27;21.25;;;8.40;;
39772;SDS011;25451;51.960;6.250;2023-02-15T06:00:54;19.85;;;8.10;;
39772;SDS011;25451;51.960;6.250;2023-02-15T06:03:20;21.83;;;7.82;;
39772;SDS011;25451;51.960;6.250;2023-02-15T06:05:45;20.67;;;8.38;;
39772;SDS011;25451;51.960;6.250;2023-02-15T06:08:11;23.23;;;8.73;;
39772;SDS011;25451;51.960;6.250;2023-02-15T06:10:36;23.20;;;8.47;;
39772;SDS011;25451;51.960;6.250;2023-02-15T06:13:01;19.47;;;8.60;;
39772;SDS011;25451;51.960;6.250;2023-02-15T06:15:27;24.07;;;9.17;;
39772;SDS011;25451;51.960;6.250;2023-02-15T06:17:52;19.10;;;8.17;;
39772;SDS011;25451;51.960;6.250;2023-02-15T06:20:17;24.45;;;8.90;;
39772;SDS011;25451;51.960;6.250;2023-02-15T06:22:42;22.38;;;8.32;;
39772;SDS011;25451;51.960;6.250;2023-02-15T06:25:08;19.63;;;8.37;;
39772;SDS011;25451;51.960;6.250;2023-02-15T06:27:35;19.57;;;8.87;;
39772;SDS011;25451;51.960;6.250;2023-02-15T06:30:00;21.92;;;9.02;;
39772;SDS011;25451;51.960;6.250;2023-02-15T06:32:26;22.43;;;8.73;;
39772;SDS011;25451;51.960;6.250;2023-02-15T06:34:51;19.90;;;8.40;;
39772;SDS011;25451;51.960;6.250;2023-02-15T06:37:16;21.90;;;8.67;;
39772;SDS011;25451;51.960;6.250;2023-02-15T06:39:42;19.40;;;7.90;;
39772;SDS011;25451;51.960;6.250;2023-02-15T06:42:07;19.67;;;8.13;;
39772;SDS011;25451;51.960;6.250;2023-02-15T06:44:33;18.67;;;8.23;;
39772;SDS011;25451;51.960;6.250;2023-02-15T06:46:58;23.53;;;9.33;;
39772;SDS011;25451;51.960;6.250;2023-02-15T06:49:23;23.20;;;9.43;;
39772;SDS011;25451;51.960;6.250;2023-02-15T06:51:48;19.97;;;8.13;;
39772;SDS011;25451;51.960;6.250;2023-02-15T06:54:14;22.47;;;8.87;;
39772;SDS011;25451;51.960;6.250;2023-02-15T06:56:39;20.60;;;8.10;;
39772;SDS011;25451;51.960;6.250;2023-02-15T06:59:04;18.17;;;7.77;;
39772;SDS011;25451;51.960;6.250;2023-02-15T07:01:30;20.77;;;8.67;;
39772;SDS011;25451;51.960;6.250;2023-02-15T07:03:55;19.20;;;7.50;;
39772;SDS011;25451;51.960;6.250;2023-02-15T07:06:20;22.57;;;8.57;;
39772;SDS011;25451;51.960;6.250;2023-02-15T07:08:45;21.93;;;8.87;;
39772;SDS011;25451;51.960;6.250;2023-02-15T07:11:11;20.97;;;8.97;;
39772;SDS011;25451;51.960;6.250;2023-02-15T07:13:54;22.17;;;9.13;;
39772;SDS011;25451;51.960;6.250;2023-02-15T07:16:20;22.87;;;9.47;;
39772;SDS011;25451;51.960;6.250;2023-02-15T07:18:46;22.73;;;9.23;;
39772;SDS011;25451;51.960;6.250;2023-02-15T07:21:11;23.07;;;9.07;;
39772;SDS011;25451;51.960;6.250;2023-02-15T07:23:37;20.53;;;8.40;;
39772;SDS011;25451;51.960;6.250;2023-02-15T07:26:03;22.75;;;8.25;;
39772;SDS011;25451;51.960;6.250;2023-02-15T07:28:30;23.48;;;10.15;;
39772;SDS011;25451;51.960;6.250;2023-02-15T07:30:56;21.07;;;8.53;;
39772;SDS011;25451;51.960;6.250;2023-02-15T07:33:22;21.10;;;8.65;;
39772;SDS011;25451;51.960;6.250;2023-02-15T07:35:51;26.93;;;10.33;;
39772;SDS011;25451;51.960;6.250;2023-02-15T07:38:18;21.05;;;8.98;;
39772;SDS011;25451;51.960;6.250;2023-02-15T07:40:44;22.05;;;8.65;;
39772;SDS011;25451;51.960;6.250;2023-02-15T07:43:10;21.30;;;8.33;;
39772;SDS011;25451;51.960;6.250;2023-02-15T07:45:36;24.80;;;9.63;;
39772;SDS011;25451;51.960;6.250;2023-02-15T07:48:02;26.67;;;9.88;;
39772;SDS011;25451;51.960;6.250;2023-02-15T07:50:29;24.73;;;9.80;;
39772;SDS011;25451;51.960;6.250;2023-02-15T07:52:54;25.33;;;9.77;;
39772;SDS011;25451;51.960;6.250;2023-02-15T07:55:19;26.37;;;9.90;;
39772;SDS011;25451;51.960;6.250;2023-02-15T07:57:45;26.07;;;9.80;;
39772;SDS011;25451;51.960;6.250;2023-02-15T08:00:12;22.75;;;9.65;;
39772;SDS011;25451;51.960;6.250;2023-02-15T08:02:40;24.60;;;10.15;;
39772;SDS011;25451;51.960;6.250;2023-02-15T08:05:05;23.87;;;10.10;;
39772;SDS011;25451;51.960;6.250;2023-02-15T08:07:31;24.63;;;9.80;;
39772;SDS011;25451;51.960;6.250;2023-02-15T08:09:56;22.93;;;9.67;;
39772;SDS011;25451;51.960;6.250;2023-02-15T08:12:21;25.50;;;10.67;;
39772;SDS011;25451;51.960;6.250;2023-02-15T08:14:47;24.87;;;9.10;;
39772;SDS011;25451;51.960;6.250;2023-02-15T08:17:12;24.63;;;10.10;;
39772;SDS011;25451;51.960;6.250;2023-02-15T08:19:37;26.73;;;10.93;;
39772;SDS011;25451;51.960;6.250;2023-02-15T08:22:04;24.47;;;11.00;;
39772;SDS011;25451;51.960;6.250;2023-02-15T08:24:35;23.85;;;10.25;;
39772;SDS011;25451;51.960;6.250;2023-02-15T08:27:02;25.67;;;10.13;;
39772;SDS011;25451;51.960;6.250;2023-02-15T08:29:28;26.98;;;9.73;;
39772;SDS011;25451;51.960;6.250;2023-02-15T08:31:56;23.58;;;11.00;;
39772;SDS011;25451;51.960;6.250;2023-02-15T08:34:23;29.73;;;11.65;;
39772;SDS011;25451;51.960;6.250;2023-02-15T08:36:49;28.07;;;11.27;;
39772;SDS011;25451;51.960;6.250;2023-02-15T08:39:14;26.40;;;11.07;;
39772;SDS011;25451;51.960;6.250;2023-02-15T08:41:41;30.75;;;11.82;;
39772;SDS011;25451;51.960;6.250;2023-02-15T08:44:11;30.20;;;11.87;;
39772;SDS011;25451;51.960;6.250;2023-02-15T08:46:37;27.70;;;12.25;;
39772;SDS011;25451;51.960;6.250;2023-02-15T08:49:05;32.17;;;12.20;;
39772;SDS011;25451;51.960;6.250;2023-02-15T08:51:31;27.73;;;11.53;;
39772;SDS011;25451;51.960;6.250;2023-02-15T08:53:59;30.30;;;12.20;;
39772;SDS011;25451;51.960;6.250;2023-02-15T08:56:31;29.90;;;12.48;;
39772;SDS011;25451;51.960;6.250;2023-02-15T08:58:58;29.25;;;12.45;;
39772;SDS011;25451;51.960;6.250;2023-02-15T09:01:25;32.43;;;12.60;;
39772;SDS011;25451;51.960;6.250;2023-02-15T09:03:55;30.00;;;12.68;;
39772;SDS011;25451;51.960;6.250;2023-02-15T09:06:22;29.75;;;12.30;;
39772;SDS011;25451;51.960;6.250;2023-02-15T09:08:48;33.63;;;14.02;;
39772;SDS011;25451;51.960;6.250;2023-02-15T09:11:15;33.43;;;12.77;;
39772;SDS011;25451;51.960;6.250;2023-02-15T09:13:55;33.45;;;13.77;;
39772;SDS011;25451;51.960;6.250;2023-02-15T09:16:21;32.13;;;12.95;;
39772;SDS011;25451;51.960;6.250;2023-02-15T09:18:48;32.67;;;13.60;;
39772;SDS011;25451;51.960;6.250;2023-02-15T09:21:16;32.10;;;12.70;;
39772;SDS011;25451;51.960;6.250;2023-02-15T09:23:44;35.07;;;13.37;;
39772;SDS011;25451;51.960;6.250;2023-02-15T09:26:15;33.47;;;13.38;;
39772;SDS011;25451;51.960;6.250;2023-02-15T09:28:45;35.28;;;14.38;;
39772;SDS011;25451;51.960;6.250;2023-02-15T09:31:15;33.88;;;14.00;;
39772;SDS011;25451;51.960;6.250;2023-02-15T09:33:43;29.83;;;13.30;;
39772;SDS011;25451;51.960;6.250;2023-02-15T09:36:14;36.13;;;13.80;;
39772;SDS011;25451;51.960;6.250;2023-02-15T09:38:39;32.70;;;13.68;;
39772;SDS011;25451;51.960;6.250;2023-02-15T09:55:23;34.93;;;14.17;;
39772;SDS011;25451;51.960;6.250;2023-02-15T10:06:18;31.90;;;12.93;;
39772;SDS011;25451;51.960;6.250;2023-02-15T10:11:26;31.65;;;12.90;;
39772;SDS011;25451;51.960;6.250;2023-02-15T10:24:46;33.77;;;13.00;;
39772;SDS011;25451;51.960;6.250;2023-02-15T10:27:24;28.55;;;11.73;;
39772;SDS011;25451;51.960;6.250;2023-02-15T10:30:01;31.13;;;12.88;;
39772;SDS011;25451;51.960;6.250;2023-02-15T10:32:46;27.33;;;12.15;;
39772;SDS011;25451;51.960;6.250;2023-02-15T10:35:19;30.20;;;12.50;;
39772;SDS011;25451;51.960;6.250;2023-02-15T10:40:44;30.35;;;12.65;;
39772;SDS011;25451;51.960;6.250;2023-02-15T10:46:23;30.30;;;13.38;;
39772;SDS011;25451;51.960;6.250;2023-02-15T10:54:58;29.60;;;12.45;;
39772;SDS011;25451;51.960;6.250;2023-02-15T10:57:30;31.10;;;12.45;;
39772;SDS011;25451;51.960;6.250;2023-02-15T11:02:54;31.60;;;13.13;;
39772;SDS011;25451;51.960;6.250;2023-02-15T11:05:41;31.90;;;13.07;;
39772;SDS011;25451;51.960;6.250;2023-02-15T11:08:15;29.42;;;11.57;;
39772;SDS011;25451;51.960;6.250;2023-02-15T11:13:14;29.50;;;12.05;;
39772;SDS011;25451;51.960;6.250;2023-02-15T11:15:44;31.65;;;12.68;;
39772;SDS011;25451;51.960;6.250;2023-02-15T11:18:16;27.70;;;12.18;;
39772;SDS011;25451;51.960;6.250;2023-02-15T11:20:54;28.65;;;12.13;;
39772;SDS011;25451;51.960;6.250;2023-02-15T11:23:23;26.90;;;12.07;;
39772;SDS011;25451;51.960;6.250;2023-02-15T11:25:57;29.75;;;12.32;;
39772;SDS011;25451;51.960;6.250;2023-02-15T11:31:00;31.10;;;13.25;;
39772;SDS011;25451;51.960;6.250;2023-02-15T11:33:36;31.50;;;12.68;;
39772;SDS011;25451;51.960;6.250;2023-02-15T11:38:32;26.73;;;12.00;;
39772;SDS011;25451;51.960;6.250;2023-02-15T11:43:49;27.98;;;12.77;;
39772;SDS011;25451;51.960;6.250;2023-02-15T11:46:20;26.03;;;11.37;;
39772;SDS011;25451;51.960;6.250;2023-02-15T11:48:46;29.27;;;12.43;;
39772;SDS011;25451;51.960;6.250;2023-02-15T11:51:14;28.17;;;12.20;;
39772;SDS011;25451;51.960;6.250;2023-02-15T11:53:41;28.85;;;11.73;;
39772;SDS011;25451;51.960;6.250;2023-02-15T11:56:24;26.00;;;11.60;;
39772;SDS011;25451;51.960;6.250;2023-02-15T11:58:52;24.77;;;11.47;;
39772;SDS011;25451;51.960;6.250;2023-02-15T12:07:04;27.52;;;11.40;;
39772;SDS011;25451;51.960;6.250;2023-02-15T12:09:38;27.08;;;11.50;;
39772;SDS011;25451;51.960;6.250;2023-02-15T12:12:19;29.10;;;10.97;;
39772;SDS011;25451;51.960;6.250;2023-02-15T12:14:54;28.00;;;10.55;;
39772;SDS011;25451;51.960;6.250;2023-02-15T12:17:21;27.20;;;12.43;;
39772;SDS011;25451;51.960;6.250;2023-02-15T12:19:49;27.67;;;11.35;;
39772;SDS011;25451;51.960;6.250;2023-02-15T12:22:24;25.67;;;10.85;;
39772;SDS011;25451;51.960;6.250;2023-02-15T12:24:55;26.93;;;11.47;;
39772;SDS011;25451;51.960;6.250;2023-02-15T12:27:27;27.02;;;11.00;;
39772;SDS011;25451;51.960;6.250;2023-02-15T12:34:55;27.35;;;11.15;;
39772;SDS011;25451;51.960;6.250;2023-02-15T12:37:26;27.53;;;11.63;;
39772;SDS011;25451;51.960;6.250;2023-02-15T12:39:55;24.83;;;10.90;;
39772;SDS011;25451;51.960;6.250;2023-02-15T12:42:22;26.65;;;11.10;;
39772;SDS011;25451;51.960;6.250;2023-02-15T12:47:20;25.35;;;10.82;;
39772;SDS011;25451;51.960;6.250;2023-02-15T12:52:41;28.83;;;11.02;;
39772;SDS011;25451;51.960;6.250;2023-02-15T12:57:47;25.38;;;10.80;;
39772;SDS011;25451;51.960;6.250;2023-02-15T13:07:44;27.23;;;11.35;;
39772;SDS011;25451;51.960;6.250;2023-02-15T13:10:35;24.88;;;11.15;;
39772;SDS011;25451;51.960;6.250;2023-02-15T13:13:10;26.98;;;11.35;;
39772;SDS011;25451;51.960;6.250;2023-02-15T13:15:43;26.08;;;11.27;;
39772;SDS011;25451;51.960;6.250;2023-02-15T13:18:17;26.60;;;11.25;;
39772;SDS011;25451;51.960;6.250;2023-02-15T13:20:51;27.58;;;11.05;;
39772;SDS011;25451;51.960;6.250;2023-02-15T13:23:27;27.92;;;11.73;;
39772;SDS011;25451;51.960;6.250;2023-02-15T13:25:55;26.48;;;11.68;;
39772;SDS011;25451;51.960;6.250;2023-02-15T13:28:24;25.92;;;11.07;;
39772;SDS011;25451;51.960;6.250;2023-02-15T13:30:59;25.40;;;10.77;;
39772;SDS011;25451;51.960;6.250;2023-02-15T13:33:27;25.37;;;10.30;;
39772;SDS011;25451;51.960;6.250;2023-02-15T13:36:18;22.88;;;10.80;;
39772;SDS011;25451;51.960;6.250;2023-02-15T13:44:01;30.40;;;11.55;;
39772;SDS011;25451;51.960;6.250;2023-02-15T13:52:08;30.48;;;12.18;;
39772;SDS011;25451;51.960;6.250;2023-02-15T14:11:37;32.05;;;12.55;;
39772;SDS011;25451;51.960;6.250;2023-02-15T14:14:17;31.20;;;11.80;;
39772;SDS011;25451;51.960;6.250;2023-02-15T14:19:40;28.02;;;11.50;;
39772;SDS011;25451;51.960;6.250;2023-02-15T14:22:29;27.52;;;11.93;;
39772;SDS011;25451;51.960;6.250;2023-02-15T14:30:41;27.27;;;11.88;;
39772;SDS011;25451;51.960;6.250;2023-02-15T14:33:29;29.35;;;12.45;;
39772;SDS011;25451;51.960;6.250;2023-02-15T14:35:59;28.23;;;11.68;;
39772;SDS011;25451;51.960;6.250;2023-02-15T14:38:36;29.92;;;12.30;;
39772;SDS011;25451;51.960;6.250;2023-02-15T14:41:04;26.45;;;11.95;;
39772;SDS011;25451;51.960;6.250;2023-02-15T14:49:17;27.33;;;11.23;;
39772;SDS011;25451;51.960;6.250;2023-02-15T14:51:57;26.27;;;11.45;;
39772;SDS011;25451;51.960;6.250;2023-02-15T15:04:33;26.27;;;11.80;;
39772;SDS011;25451;51.960;6.250;2023-02-15T15:09:45;27.20;;;11.88;;
39772;SDS011;25451;51.960;6.250;2023-02-15T15:14:51;27.65;;;12.23;;
39772;SDS011;25451;51.960;6.250;2023-02-15T15:25:48;24.13;;;10.30;;
39772;SDS011;25451;51.960;6.250;2023-02-15T15:34:24;26.33;;;11.52;;
39772;SDS011;25451;51.960;6.250;2023-02-15T15:40:29;27.15;;;11.60;;
39772;SDS011;25451;51.960;6.250;2023-02-15T15:45:55;26.00;;;10.18;;
39772;SDS011;25451;51.960;6.250;2023-02-15T15:48:59;28.17;;;11.27;;
39772;SDS011;25451;51.960;6.250;2023-02-15T15:51:31;27.73;;;11.07;;
39772;SDS011;25451;51.960;6.250;2023-02-15T15:53:58;24.65;;;10.98;;
39772;SDS011;25451;51.960;6.250;2023-02-15T15:56:30;29.42;;;11.25;;
39772;SDS011;25451;51.960;6.250;2023-02-15T15:59:04;28.42;;;12.13;;
39772;SDS011;25451;51.960;6.250;2023-02-15T16:01:35;26.27;;;11.95;;
39772;SDS011;25451;51.960;6.250;2023-02-15T16:04:05;27.08;;;12.02;;
39772;SDS011;25451;51.960;6.250;2023-02-15T16:06:32;27.50;;;11.65;;
39772;SDS011;25451;51.960;6.250;2023-02-15T16:11:46;24.00;;;11.05;;
39772;SDS011;25451;51.960;6.250;2023-02-15T16:14:17;21.08;;;9.77;;
39772;SDS011;25451;51.960;6.250;2023-02-15T16:16:57;28.23;;;11.57;;
39772;SDS011;25451;51.960;6.250;2023-02-15T16:19:35;27.95;;;12.05;;
39772;SDS011;25451;51.960;6.250;2023-02-15T16:22:03;26.87;;;11.77;;
39772;SDS011;25451;51.960;6.250;2023-02-15T16:29:42;25.25;;;11.20;;
39772;SDS011;25451;51.960;6.250;2023-02-15T16:32:24;26.90;;;10.83;;
39772;SDS011;25451;51.960;6.250;2023-02-15T16:34:58;26.00;;;11.13;;
39772;SDS011;25451;51.960;6.250;2023-02-15T16:37:26;26.73;;;11.48;;
39772;SDS011;25451;51.960;6.250;2023-02-15T16:39:53;28.70;;;11.73;;
39772;SDS011;25451;51.960;6.250;2023-02-15T16:42:20;24.95;;;11.38;;
39772;SDS011;25451;51.960;6.250;2023-02-15T16:44:48;24.80;;;11.15;;
39772;SDS011;25451;51.960;6.250;2023-02-15T16:47:23;27.58;;;11.77;;
39772;SDS011;25451;51.960;6.250;2023-02-15T16:49:51;27.23;;;11.40;;
39772;SDS011;25451;51.960;6.250;2023-02-15T16:52:21;27.70;;;11.63;;
39772;SDS011;25451;51.960;6.250;2023-02-15T16:54:53;27.10;;;11.15;;
39772;SDS011;25451;51.960;6.250;2023-02-15T16:57:34;27.58;;;12.38;;
39772;SDS011;25451;51.960;6.250;2023-02-15T17:00:03;27.48;;;11.40;;
39772;SDS011;25451;51.960;6.250;2023-02-15T17:02:33;25.20;;;10.77;;
39772;SDS011;25451;51.960;6.250;2023-02-15T17:05:20;24.70;;;11.37;;
39772;SDS011;25451;51.960;6.250;2023-02-15T17:08:04;26.55;;;11.30;;
39772;SDS011;25451;51.960;6.250;2023-02-15T17:13:36;27.65;;;11.38;;
39772;SDS011;25451;51.960;6.250;2023-02-15T17:18:31;25.67;;;11.57;;
39772;SDS011;25451;51.960;6.250;2023-02-15T17:21:00;24.70;;;10.65;;
39772;SDS011;25451;51.960;6.250;2023-02-15T17:23:37;27.42;;;11.77;;
39772;SDS011;25451;51.960;6.250;2023-02-15T17:26:11;25.27;;;11.13;;
39772;SDS011;25451;51.960;6.250;2023-02-15T17:28:45;28.60;;;11.70;;
39772;SDS011;25451;51.960;6.250;2023-02-15T17:31:12;27.30;;;11.50;;
39772;SDS011;25451;51.960;6.250;2023-02-15T17:33:41;26.00;;;11.27;;
39772;SDS011;25451;51.960;6.250;2023-02-15T17:38:35;28.27;;;11.90;;
39772;SDS011;25451;51.960;6.250;2023-02-15T17:41:02;25.45;;;11.27;;
39772;SDS011;25451;51.960;6.250;2023-02-15T17:43:28;29.15;;;11.93;;
39772;SDS011;25451;51.960;6.250;2023-02-15T17:45:53;25.67;;;11.93;;
39772;SDS011;25451;51.960;6.250;2023-02-15T17:48:25;24.40;;;11.50;;
39772;SDS011;25451;51.960;6.250;2023-02-15T17:50:56;26.08;;;11.40;;
39772;SDS011;25451;51.960;6.250;2023-02-15T17:53:23;26.55;;;11.45;;
39772;SDS011;25451;51.960;6.250;2023-02-15T17:55:49;23.90;;;11.40;;
39772;SDS011;25451;51.960;6.250;2023-02-15T17:58:16;26.93;;;12.30;;
39772;SDS011;25451;51.960;6.250;2023-02-15T18:00:44;28.65;;;12.25;;
39772;SDS011;25451;51.960;6.250;2023-02-15T18:03:44;30.80;;;11.60;;
39772;SDS011;25451;51.960;6.250;2023-02-15T18:06:30;27.37;;;11.80;;
39772;SDS011;25451;51.960;6.250;2023-02-15T18:09:17;26.67;;;11.38;;
39772;SDS011;25451;51.960;6.250;2023-02-15T18:12:03;29.45;;;12.43;;
39772;SDS011;25451;51.960;6.250;2023-02-15T18:14:43;28.67;;;12.05;;
39772;SDS011;25451;51.960;6.250;2023-02-15T18:17:10;27.27;;;11.90;;
39772;SDS011;25451;51.960;6.250;2023-02-15T18:19:37;26.05;;;12.43;;
39772;SDS011;25451;51.960;6.250;2023-02-15T18:22:08;25.53;;;12.07;;
39772;SDS011;25451;51.960;6.250;2023-02-15T18:24:39;29.25;;;12.52;;